createdAt,value
2018-08-22T00:00:22.596Z,17.55
2018-08-22T00:02:52.443Z,17.70
2018-08-22T00:05:22.299Z,17.73
2018-08-22T00:07:52.082Z,17.60
2018-08-22T00:10:21.873Z,17.67
2018-08-22T00:12:51.813Z,17.63
2018-08-22T00:15:21.704Z,17.63
2018-08-22T00:17:51.468Z,17.53
2018-08-22T00:20:21.311Z,17.42
2018-08-22T00:22:51.188Z,17.37
2018-08-22T00:25:20.961Z,17.28
2018-08-22T00:27:50.815Z,17.29
2018-08-22T00:30:20.573Z,17.21
2018-08-22T00:32:50.444Z,17.20
2018-08-22T00:35:20.298Z,17.18
2018-08-22T00:37:50.025Z,17.21
2018-08-22T00:40:19.877Z,17.11
2018-08-22T00:42:49.618Z,17.01
2018-08-22T00:45:19.376Z,17.04
2018-08-22T00:47:49.278Z,17.11
2018-08-22T00:50:19.119Z,17.07
2018-08-22T00:52:49.081Z,17.16
2018-08-22T00:55:18.892Z,17.00
2018-08-22T00:57:48.868Z,17.07
2018-08-22T01:00:18.700Z,17.05
2018-08-22T01:02:48.428Z,16.89
2018-08-22T01:05:18.287Z,16.84
2018-08-22T01:07:48.036Z,16.86
2018-08-22T01:10:18.398Z,16.79
2018-08-22T01:12:48.169Z,16.74
2018-08-22T01:15:18.357Z,16.67
2018-08-22T01:17:48.119Z,16.71
2018-08-22T01:20:17.919Z,16.64
2018-08-22T01:22:47.707Z,16.69
2018-08-22T01:25:17.568Z,16.59
2018-08-22T01:27:47.420Z,16.60
2018-08-22T01:30:17.307Z,16.66
2018-08-22T01:32:47.252Z,16.54
2018-08-22T01:35:17.084Z,16.52
2018-08-22T01:37:46.919Z,16.46
2018-08-22T01:40:16.867Z,16.47
2018-08-22T01:42:46.704Z,16.43
2018-08-22T01:45:16.493Z,16.39
2018-08-22T01:47:46.274Z,16.37
2018-08-22T01:50:16.125Z,16.34
2018-08-22T01:52:45.858Z,16.35
2018-08-22T01:55:15.770Z,16.38
2018-08-22T01:57:45.725Z,16.40
2018-08-22T02:00:15.714Z,16.49
2018-08-22T02:02:45.544Z,16.54
2018-08-22T02:05:15.330Z,16.59
2018-08-22T02:07:45.091Z,16.70
2018-08-22T02:10:14.880Z,16.76
2018-08-22T02:12:44.642Z,16.66
2018-08-22T02:15:14.487Z,16.54
2018-08-22T02:17:44.238Z,16.55
2018-08-22T02:20:14.005Z,16.58
2018-08-22T02:22:43.755Z,16.58
2018-08-22T02:25:13.635Z,16.55
2018-08-22T02:27:43.517Z,16.49
2018-08-22T02:30:13.318Z,16.40
2018-08-22T02:32:43.276Z,16.31
2018-08-22T02:35:13.099Z,16.28
2018-08-22T02:37:42.907Z,16.26
2018-08-22T02:40:12.834Z,16.27
2018-08-22T02:42:42.812Z,16.31
2018-08-22T02:45:12.700Z,16.25
2018-08-22T02:47:42.555Z,16.25
2018-08-22T02:50:12.411Z,16.18
2018-08-22T02:52:42.156Z,16.17
2018-08-22T02:55:11.961Z,16.08
2018-08-22T02:57:41.712Z,16.08
2018-08-22T03:00:11.681Z,16.06
2018-08-22T03:02:41.426Z,16.02
2018-08-22T03:05:11.247Z,16.01
2018-08-22T03:07:41.178Z,15.92
2018-08-22T03:10:10.954Z,15.94
2018-08-22T03:12:40.794Z,15.88
2018-08-22T03:15:10.512Z,15.94
2018-08-22T03:17:40.327Z,15.92
2018-08-22T03:20:10.097Z,15.90
2018-08-22T03:22:39.859Z,15.87
2018-08-22T03:25:09.601Z,15.86
2018-08-22T03:27:39.406Z,15.84
2018-08-22T03:30:09.250Z,15.83
2018-08-22T03:32:38.995Z,15.76
2018-08-22T03:35:08.830Z,15.85
2018-08-22T03:37:38.623Z,15.83
2018-08-22T03:40:08.434Z,15.83
2018-08-22T03:42:38.481Z,15.86
2018-08-22T03:45:08.411Z,15.79
2018-08-22T03:47:38.249Z,15.88
2018-08-22T03:50:08.442Z,15.82
2018-08-22T03:52:38.474Z,15.79
2018-08-22T03:55:08.243Z,15.78
2018-08-22T03:57:38.486Z,15.81
2018-08-22T04:00:08.302Z,15.87
2018-08-22T04:02:38.048Z,15.83
2018-08-22T04:05:07.850Z,15.92
2018-08-22T04:07:37.629Z,15.88
2018-08-22T04:10:07.698Z,15.85
2018-08-22T04:12:37.663Z,15.93
2018-08-22T04:15:07.552Z,15.89
2018-08-22T04:17:39.727Z,15.88
2018-08-22T04:20:09.912Z,15.88
2018-08-22T04:22:40.602Z,16.05
2018-08-22T04:25:10.417Z,16.02
2018-08-22T04:27:40.190Z,16.02
2018-08-22T04:30:10.080Z,16.00
2018-08-22T04:32:39.894Z,16.06
2018-08-22T04:35:09.639Z,16.14
2018-08-22T04:37:39.449Z,16.14
2018-08-22T04:40:09.217Z,16.12
2018-08-22T04:42:38.985Z,16.17
2018-08-22T04:45:08.976Z,16.23
2018-08-22T04:47:38.750Z,16.59
2018-08-22T04:50:08.572Z,16.84
2018-08-22T04:52:38.363Z,17.12
2018-08-22T04:55:08.179Z,17.33
2018-08-22T04:57:37.957Z,17.59
2018-08-22T05:00:09.260Z,17.52
2018-08-22T05:02:39.368Z,17.29
2018-08-22T05:05:09.340Z,17.33
2018-08-22T05:07:39.156Z,17.39
2018-08-22T05:10:09.316Z,17.27
2018-08-22T05:12:39.029Z,17.37
2018-08-22T05:15:08.839Z,17.62
2018-08-22T05:17:38.961Z,17.95
2018-08-22T05:20:08.836Z,18.00
2018-08-22T05:22:38.537Z,17.91
2018-08-22T05:25:08.351Z,17.62
2018-08-22T05:27:38.153Z,17.87
2018-08-22T05:30:08.116Z,18.25
2018-08-22T05:32:37.955Z,19.01
2018-08-22T05:35:07.766Z,19.66
2018-08-22T05:37:37.798Z,19.56
2018-08-22T05:40:07.860Z,19.72
2018-08-22T05:42:37.688Z,19.88
2018-08-22T05:45:07.832Z,20.57
2018-08-22T05:47:37.568Z,20.80
2018-08-22T05:50:07.696Z,21.16
2018-08-22T05:52:37.501Z,20.84
2018-08-22T05:55:07.259Z,21.28
2018-08-22T05:57:37.256Z,21.43
2018-08-22T06:00:07.546Z,20.69
2018-08-22T06:02:37.271Z,20.72
2018-08-22T06:05:07.051Z,20.99
2018-08-22T06:07:36.831Z,20.95
2018-08-22T06:10:07.138Z,20.71
2018-08-22T06:12:36.958Z,20.87
2018-08-22T06:15:06.902Z,20.81
2018-08-22T06:17:36.716Z,20.89
2018-08-22T06:20:06.810Z,21.14
2018-08-22T06:22:36.589Z,21.77
2018-08-22T06:25:06.380Z,21.62
2018-08-22T06:27:36.191Z,21.62
2018-08-22T06:30:07.861Z,21.85
2018-08-22T06:32:37.673Z,21.83
2018-08-22T06:35:07.990Z,22.24
2018-08-22T06:37:37.770Z,21.73
2018-08-22T06:40:07.580Z,21.67
2018-08-22T06:42:37.374Z,21.78
2018-08-22T06:45:08.543Z,21.98
2018-08-22T06:47:38.371Z,21.65
2018-08-22T06:50:08.540Z,22.42
2018-08-22T06:52:38.361Z,22.40
2018-08-22T06:55:08.382Z,22.68
2018-08-22T06:57:38.240Z,22.90
2018-08-22T07:00:08.587Z,22.75
2018-08-22T07:02:38.317Z,23.13
2018-08-22T07:05:08.150Z,23.40
2018-08-22T07:07:37.916Z,23.16
2018-08-22T07:10:07.797Z,23.61
2018-08-22T07:12:37.581Z,23.54
2018-08-22T07:15:08.064Z,23.44
2018-08-22T07:17:37.767Z,23.49
2018-08-22T07:20:08.104Z,23.53
2018-08-22T07:22:37.942Z,23.60
2018-08-22T07:25:07.810Z,23.70
2018-08-22T07:27:37.615Z,23.75
2018-08-22T07:30:07.732Z,23.82
2018-08-22T07:32:37.526Z,23.92
2018-08-22T07:35:07.445Z,24.52
2018-08-22T07:37:37.274Z,24.83
2018-08-22T07:40:07.576Z,25.05
2018-08-22T07:42:37.796Z,25.38
2018-08-22T07:45:08.077Z,25.42
2018-08-22T07:47:38.165Z,25.54
2018-08-22T07:50:08.052Z,25.01
2018-08-22T07:52:39.068Z,25.57
2018-08-22T07:55:08.901Z,25.72
2018-08-22T07:57:38.640Z,25.67
2018-08-22T08:00:08.507Z,25.79
2018-08-22T08:02:38.204Z,25.91
2018-08-22T08:05:08.056Z,25.86
2018-08-22T08:07:37.806Z,26.00
2018-08-22T08:10:08.248Z,25.93
2018-08-22T08:12:40.776Z,26.19
2018-08-22T08:15:10.853Z,26.04
2018-08-22T08:17:40.564Z,26.12
2018-08-22T08:20:10.345Z,26.00
2018-08-22T08:22:40.127Z,26.11
2018-08-22T08:25:10.040Z,26.52
2018-08-22T08:27:39.800Z,25.86
2018-08-22T08:30:09.592Z,26.20
2018-08-22T08:32:39.518Z,26.41
2018-08-22T08:35:09.518Z,26.28
2018-08-22T08:37:39.380Z,26.63
2018-08-22T08:40:09.258Z,26.85
2018-08-22T08:42:39.101Z,27.11
2018-08-22T08:45:11.090Z,27.33
2018-08-22T08:47:40.871Z,26.70
2018-08-22T08:50:10.676Z,27.30
2018-08-22T08:52:40.710Z,27.32
2018-08-22T08:55:10.439Z,27.54
2018-08-22T08:57:40.202Z,27.84
2018-08-22T09:00:10.103Z,27.97
2018-08-22T09:02:39.893Z,27.79
2018-08-22T09:05:09.771Z,27.86
2018-08-22T09:07:39.572Z,28.29
2018-08-22T09:10:09.419Z,27.88
2018-08-22T09:12:39.279Z,28.24
2018-08-22T09:15:09.101Z,28.18
2018-08-22T09:17:38.978Z,27.80
2018-08-22T09:20:09.390Z,28.18
2018-08-22T09:22:39.110Z,28.54
2018-08-22T09:25:08.898Z,28.84
2018-08-22T09:27:39.051Z,28.92
2018-08-22T09:30:08.899Z,28.95
2018-08-22T09:32:38.682Z,29.31
2018-08-22T09:35:08.489Z,29.37
2018-08-22T09:37:38.259Z,29.37
2018-08-22T09:40:08.214Z,29.00
2018-08-22T09:42:38.132Z,29.62
2018-08-22T09:45:08.047Z,29.37
2018-08-22T09:47:37.990Z,29.75
2018-08-22T09:50:07.973Z,29.70
2018-08-22T09:52:37.800Z,29.96
2018-08-22T09:55:08.546Z,30.13
2018-08-22T09:57:38.381Z,29.64
2018-08-22T10:00:12.897Z,29.35
2018-08-22T10:02:42.566Z,29.64
2018-08-22T10:05:12.397Z,30.02
2018-08-22T10:07:42.159Z,30.33
2018-08-22T10:10:12.021Z,30.86
2018-08-22T10:12:41.763Z,30.39
2018-08-22T10:15:11.520Z,29.95
2018-08-22T10:17:41.260Z,30.63
2018-08-22T10:20:11.105Z,30.67
2018-08-22T10:22:40.877Z,30.55
2018-08-22T10:25:10.767Z,31.21
2018-08-22T10:27:40.577Z,30.98
2018-08-22T10:30:10.532Z,31.65
2018-08-22T10:32:40.375Z,31.88
2018-08-22T10:35:10.208Z,31.99
2018-08-22T10:37:40.019Z,31.67
2018-08-22T10:40:09.813Z,31.35
2018-08-22T10:42:39.579Z,31.46
2018-08-22T10:45:09.371Z,31.64
2018-08-22T10:47:39.135Z,31.98
2018-08-22T10:50:08.947Z,32.08
2018-08-22T10:52:38.702Z,31.98
2018-08-22T10:55:08.515Z,32.19
2018-08-22T10:57:38.291Z,31.97
2018-08-22T11:00:08.082Z,32.47
2018-08-22T11:02:37.826Z,32.38
2018-08-22T11:05:07.622Z,32.02
2018-08-22T11:07:37.368Z,32.16
2018-08-22T11:10:07.309Z,31.63
2018-08-22T11:12:37.115Z,32.29
2018-08-22T11:15:06.961Z,32.14
2018-08-22T11:17:36.722Z,32.13
2018-08-22T11:20:06.512Z,32.24
2018-08-22T11:22:53.360Z,31.47
2018-08-22T11:25:40.146Z,31.74
2018-08-22T11:28:26.807Z,31.77
2018-08-22T11:31:13.416Z,31.73
2018-08-22T11:34:00.001Z,31.31
2018-08-22T11:36:28.307Z,32.19
2018-08-22T11:38:58.104Z,32.19
2018-08-22T11:41:27.963Z,31.75
2018-08-22T11:43:57.833Z,32.03
2018-08-22T11:46:27.730Z,31.88
2018-08-22T11:48:57.571Z,32.42
2018-08-22T11:51:27.464Z,32.51
2018-08-22T11:53:57.203Z,32.43
2018-08-22T11:56:27.112Z,32.74
2018-08-22T11:58:56.873Z,32.56
2018-08-22T12:01:26.737Z,32.86
2018-08-22T12:03:56.475Z,32.84
2018-08-22T12:06:26.325Z,32.78
2018-08-22T12:08:56.178Z,32.62
2018-08-22T12:11:26.004Z,32.81
2018-08-22T12:13:55.793Z,32.91
2018-08-22T12:16:25.596Z,33.39
2018-08-22T12:18:55.422Z,32.78
2018-08-22T12:21:25.303Z,32.77
2018-08-22T12:23:55.170Z,32.60
2018-08-22T12:26:25.066Z,32.63
2018-08-22T12:28:54.972Z,33.22
2018-08-22T12:31:24.850Z,33.29
2018-08-22T12:33:54.671Z,33.69
2018-08-22T12:36:24.460Z,34.27
2018-08-22T12:38:54.720Z,34.43
2018-08-22T12:41:24.690Z,34.09
2018-08-22T12:43:54.515Z,33.43
2018-08-22T12:46:24.372Z,34.06
2018-08-22T12:48:54.268Z,34.33
2018-08-22T12:51:24.012Z,34.49
2018-08-22T12:53:53.810Z,33.94
2018-08-22T12:56:23.664Z,33.95
2018-08-22T12:58:53.428Z,34.16
2018-08-22T13:01:23.260Z,34.69
2018-08-22T13:03:53.073Z,34.30
2018-08-22T13:06:22.834Z,34.15
2018-08-22T13:08:53.197Z,33.78
2018-08-22T13:11:22.981Z,33.82
2018-08-22T13:13:52.825Z,34.03
2018-08-22T13:16:22.601Z,34.52
2018-08-22T13:18:52.405Z,35.08
2018-08-22T13:21:22.174Z,34.21
2018-08-22T13:23:51.889Z,34.34
2018-08-22T13:26:21.664Z,34.01
2018-08-22T13:28:51.584Z,34.19
2018-08-22T13:31:21.459Z,34.31
2018-08-22T13:33:51.293Z,33.92
2018-08-22T13:36:21.212Z,33.30
2018-08-22T13:38:51.033Z,33.52
2018-08-22T13:41:20.925Z,33.53
2018-08-22T13:43:50.786Z,33.47
2018-08-22T13:46:20.625Z,33.65
2018-08-22T13:48:50.417Z,34.10
2018-08-22T13:51:20.167Z,34.04
2018-08-22T13:53:49.922Z,33.66
2018-08-22T13:56:19.688Z,33.49
2018-08-22T13:58:49.479Z,33.79
2018-08-22T14:01:19.319Z,34.23
2018-08-22T14:03:49.333Z,34.23
2018-08-22T14:06:19.137Z,34.16
2018-08-22T14:08:49.023Z,34.75
2018-08-22T14:11:18.805Z,35.18
2018-08-22T14:13:48.675Z,34.84
2018-08-22T14:16:18.508Z,35.10
2018-08-22T14:18:48.436Z,35.27
2018-08-22T14:21:18.264Z,34.89
2018-08-22T14:23:48.151Z,34.69
2018-08-22T14:26:17.970Z,35.16
2018-08-22T14:28:47.753Z,35.52
2018-08-22T14:31:17.555Z,35.64
2018-08-22T14:33:47.468Z,35.41
2018-08-22T14:36:17.272Z,35.27
2018-08-22T14:38:47.331Z,35.65
2018-08-22T14:41:17.187Z,35.49
2018-08-22T14:43:47.011Z,35.71
2018-08-22T14:46:16.804Z,35.74
2018-08-22T14:48:46.579Z,35.89
2018-08-22T14:51:16.366Z,35.40
2018-08-22T14:53:46.124Z,35.94
2018-08-22T14:56:16.003Z,35.84
2018-08-22T14:58:45.710Z,35.76
2018-08-22T15:01:15.447Z,35.91
2018-08-22T15:03:45.221Z,35.98
2018-08-22T15:06:15.034Z,35.60
2018-08-22T15:08:44.806Z,35.92
2018-08-22T15:11:14.674Z,35.72
2018-08-22T15:13:44.523Z,35.47
2018-08-22T15:16:14.454Z,35.02
2018-08-22T15:18:44.307Z,34.56
2018-08-22T15:21:14.185Z,34.82
2018-08-22T15:23:43.966Z,34.88
2018-08-22T15:26:13.797Z,34.41
2018-08-22T15:28:43.569Z,34.31
2018-08-22T15:31:13.398Z,34.35
2018-08-22T15:33:43.843Z,34.11
2018-08-22T15:36:13.901Z,34.08
2018-08-22T15:38:43.715Z,34.00
2018-08-22T15:41:13.571Z,33.90
2018-08-22T15:43:43.281Z,34.33
2018-08-22T15:46:13.172Z,34.35
2018-08-22T15:48:42.947Z,34.52
2018-08-22T15:51:12.824Z,34.44
2018-08-22T15:53:42.613Z,34.33
2018-08-22T15:56:12.419Z,34.10
2018-08-22T15:58:42.252Z,33.90
2018-08-22T16:01:12.101Z,33.76
2018-08-22T16:03:42.016Z,33.68
2018-08-22T16:06:11.858Z,33.77
2018-08-22T16:08:41.630Z,33.58
2018-08-22T16:11:11.392Z,33.52
2018-08-22T16:13:41.136Z,33.46
2018-08-22T16:16:10.906Z,33.25
2018-08-22T16:18:40.767Z,33.09
2018-08-22T16:21:10.599Z,33.08
2018-08-22T16:23:41.138Z,32.98
2018-08-22T16:26:11.141Z,33.11
2018-08-22T16:28:55.168Z,33.23
2018-08-22T16:31:29.790Z,33.22
2018-08-22T16:33:59.886Z,32.99
2018-08-22T16:36:30.805Z,32.77
2018-08-22T16:39:01.566Z,32.70
2018-08-22T16:41:31.402Z,32.59
2018-08-22T16:44:01.279Z,32.60
2018-08-22T16:46:31.205Z,32.18
2018-08-22T16:49:01.081Z,31.93
2018-08-22T16:51:30.936Z,31.69
2018-08-22T16:54:05.968Z,31.52
2018-08-22T16:56:36.116Z,31.41
2018-08-22T16:59:11.397Z,31.37
2018-08-22T17:01:44.496Z,31.26
2018-08-22T17:04:14.375Z,30.99
2018-08-22T17:06:44.309Z,30.73
2018-08-22T17:09:14.196Z,30.50
2018-08-22T17:11:43.965Z,30.40
2018-08-22T17:14:13.766Z,30.30
2018-08-22T17:16:43.599Z,30.00
2018-08-22T17:19:13.376Z,29.79
2018-08-22T17:21:43.258Z,29.67
2018-08-22T17:24:13.149Z,29.56
2018-08-22T17:26:42.990Z,29.61
2018-08-22T17:29:12.852Z,29.43
2018-08-22T17:31:43.391Z,29.28
2018-08-22T17:34:13.205Z,29.19
2018-08-22T17:36:43.642Z,29.21
2018-08-22T17:39:14.145Z,29.19
2018-08-22T17:41:44.099Z,29.09
2018-08-22T17:44:14.590Z,28.89
2018-08-22T17:46:48.298Z,28.82
2018-08-22T17:49:18.194Z,28.63
2018-08-22T17:52:01.261Z,28.57
2018-08-22T17:54:31.155Z,28.32
2018-08-22T17:57:21.174Z,28.34
2018-08-22T17:59:51.111Z,28.27
2018-08-22T18:02:20.997Z,28.16
2018-08-22T18:05:01.307Z,28.21
2018-08-22T18:07:31.269Z,28.23
2018-08-22T18:10:03.169Z,28.13
2018-08-22T18:12:32.956Z,28.15
2018-08-22T18:15:03.854Z,28.00
2018-08-22T18:17:33.827Z,27.94
2018-08-22T18:20:03.729Z,27.66
2018-08-22T18:22:36.410Z,27.67
2018-08-22T18:25:06.991Z,27.60
2018-08-22T18:27:36.816Z,27.49
2018-08-22T18:30:09.880Z,27.30
2018-08-22T18:32:39.779Z,27.05
2018-08-22T18:35:10.626Z,26.74
2018-08-22T18:37:41.426Z,26.49
2018-08-22T18:40:20.639Z,26.23
2018-08-22T18:42:57.326Z,25.97
2018-08-22T18:45:27.849Z,25.80
2018-08-22T18:47:59.118Z,25.53
2018-08-22T18:50:29.189Z,25.31
2018-08-22T18:53:00.250Z,25.32
2018-08-22T18:55:31.480Z,25.00
2018-08-22T18:58:03.000Z,24.95
2018-08-22T19:00:37.404Z,24.89
2018-08-22T19:03:07.337Z,24.67
2018-08-22T19:05:38.114Z,24.48
2018-08-22T19:08:16.066Z,24.27
2018-08-22T19:10:47.378Z,24.18
2018-08-22T19:13:18.402Z,24.10
2018-08-22T19:15:50.027Z,23.98
2018-08-22T19:18:19.872Z,23.89
2018-08-22T19:20:50.261Z,23.82
2018-08-22T19:23:20.739Z,23.66
2018-08-22T19:25:51.499Z,23.58
2018-08-22T19:28:21.303Z,23.55
2018-08-22T19:30:51.214Z,23.51
2018-08-22T19:33:24.110Z,23.53
2018-08-22T19:35:54.059Z,23.38
2018-08-22T19:38:25.138Z,23.22
2018-08-22T19:40:55.204Z,23.05
2018-08-22T19:43:25.042Z,22.93
2018-08-22T19:45:54.887Z,22.92
2018-08-22T19:48:25.953Z,22.79
2018-08-22T19:50:55.732Z,22.78
2018-08-22T19:53:25.521Z,22.63
2018-08-22T19:55:55.322Z,22.59
2018-08-22T19:58:30.128Z,22.48
2018-08-22T20:01:00.567Z,22.48
2018-08-22T20:03:34.447Z,22.34
2018-08-22T20:06:04.410Z,22.15
2018-08-22T20:08:36.858Z,22.05
2018-08-22T20:11:07.281Z,22.12
2018-08-22T20:13:53.253Z,22.06
2018-08-22T20:16:23.842Z,22.08
2018-08-22T20:18:56.976Z,21.96
2018-08-22T20:21:32.008Z,21.90
2018-08-22T20:24:02.654Z,21.85
2018-08-22T20:26:32.954Z,21.78
2018-08-22T20:29:03.909Z,21.69
2018-08-22T20:31:35.713Z,21.60
2018-08-22T20:34:10.394Z,21.60
2018-08-22T20:36:40.533Z,21.58
2018-08-22T20:39:11.991Z,21.38
2018-08-22T20:41:42.647Z,21.33
2018-08-22T20:44:17.755Z,21.38
2018-08-22T20:46:48.923Z,21.32
2018-08-22T20:49:20.621Z,21.34
2018-08-22T20:51:50.536Z,21.29
2018-08-22T20:54:23.356Z,21.30
2018-08-22T20:57:02.617Z,21.22
2018-08-22T20:59:32.512Z,21.04
2018-08-22T21:02:04.325Z,20.97
2018-08-22T21:04:34.628Z,20.96
2018-08-22T21:07:04.894Z,20.97
2018-08-22T21:09:34.718Z,20.94
2018-08-22T21:12:04.825Z,20.81
2018-08-22T21:14:34.716Z,20.71
2018-08-22T21:17:04.543Z,20.67
2018-08-22T21:19:34.436Z,20.66
2018-08-22T21:22:09.678Z,20.64
2018-08-22T21:24:39.804Z,20.52
2018-08-22T21:27:09.834Z,20.47
2018-08-22T21:29:39.828Z,20.40
2018-08-22T21:32:10.094Z,20.49
2018-08-22T21:34:39.958Z,20.38
2018-08-22T21:37:26.418Z,20.35
2018-08-22T21:39:56.629Z,20.30
2018-08-22T21:42:30.344Z,20.29
2018-08-22T21:45:00.412Z,20.15
2018-08-22T21:47:30.289Z,20.13
2018-08-22T21:50:00.245Z,20.08
2018-08-22T21:52:59.823Z,20.01
2018-08-22T21:55:36.913Z,19.96
2018-08-22T21:58:07.510Z,19.95
2018-08-22T22:00:37.569Z,19.89
2018-08-22T22:03:07.908Z,19.83
2018-08-22T22:05:47.515Z,19.71
2018-08-22T22:08:17.423Z,19.68
2018-08-22T22:10:47.235Z,19.65
2018-08-22T22:13:17.152Z,19.63
2018-08-22T22:15:47.518Z,19.74
2018-08-22T22:18:17.473Z,19.66
2018-08-22T22:20:51.385Z,19.50
2018-08-22T22:23:21.428Z,19.48
2018-08-22T22:25:51.248Z,19.38
2018-08-22T22:28:23.925Z,19.33
2018-08-22T22:30:53.750Z,19.37
2018-08-22T22:33:23.509Z,19.38
2018-08-22T22:35:53.351Z,19.27
2018-08-22T22:38:23.223Z,19.36
2018-08-22T22:40:53.067Z,19.28
2018-08-22T22:43:22.954Z,19.20
2018-08-22T22:45:52.786Z,19.17
2018-08-22T22:48:36.115Z,19.11
2018-08-22T22:51:06.588Z,18.98
2018-08-22T22:53:36.940Z,18.91
2018-08-22T22:56:07.206Z,18.84
2018-08-22T22:58:37.641Z,18.90
2018-08-22T23:01:08.215Z,18.82
2018-08-22T23:03:38.095Z,18.76
2018-08-22T23:06:07.875Z,18.74
2018-08-22T23:08:37.653Z,18.61
2018-08-22T23:11:07.616Z,18.59
2018-08-22T23:13:37.447Z,18.55
2018-08-22T23:16:07.309Z,18.47
2018-08-22T23:18:37.219Z,18.45
2018-08-22T23:21:07.024Z,18.40
2018-08-22T23:23:38.628Z,18.48
2018-08-22T23:26:14.963Z,18.56
2018-08-22T23:28:45.546Z,18.54
2018-08-22T23:31:19.179Z,18.49
2018-08-22T23:33:49.414Z,18.42
2018-08-22T23:36:19.257Z,18.30
2018-08-22T23:38:49.107Z,18.32
2018-08-22T23:41:19.050Z,18.33
2018-08-22T23:43:52.307Z,18.21
2018-08-22T23:46:22.118Z,18.17
2018-08-22T23:48:59.308Z,18.14
2018-08-22T23:51:29.213Z,18.06
2018-08-22T23:54:00.761Z,18.00
2018-08-22T23:56:31.499Z,18.07
2018-08-22T23:59:01.382Z,17.90
